Time;durP1;ratioP1;P1;durP2;ratioP2;P2;SDS_P1;SDS_P2;PMS_P1;PMS_P2;Temp;Humidity;BMP_temperature;BMP_pressure;BME280_temperature;BME280_humidity;BME280_pressure;Samples;Min_cycle;Max_cycle;Signal;HPM_P1;HPM_P2
2022/12/29 00:01:31;;;;;;;5.47;1.83;;;7.90;99.90;;;;;;2602868;54;20056;31
2022/12/29 00:04:06;;;;;;;4.65;1.52;;;7.90;99.90;;;;;;2620874;47;20022;31
2022/12/29 00:06:51;;;;;;;3.27;1.50;;;7.90;99.90;;;;;;2621311;47;20081;31
2022/12/29 00:09:28;;;;;;;3.03;1.60;;;7.90;99.90;;;;;;2602104;54;19997;31
2022/12/29 00:12:06;;;;;;;3.80;1.30;;;7.90;99.90;;;;;;2603158;54;20026;31
2022/12/29 00:17:38;;;;;;;4.55;1.70;;;8.00;99.90;;;;;;2602938;54;20340;31
2022/12/29 00:37:03;;;;;;;4.53;1.90;;;7.60;99.90;;;;;;2603834;54;20029;31
2022/12/29 00:45:18;;;;;;;;;;;7.40;99.90;;;;;;2603754;54;20029;31
2022/12/29 00:47:55;;;;;;;2.60;1.80;;;7.50;99.90;;;;;;2622009;46;19934;31
2022/12/29 00:50:28;;;;;;;3.20;1.83;;;7.40;99.90;;;;;;2603776;54;20904;31
2022/12/29 00:53:04;;;;;;;4.47;2.08;;;7.30;99.90;;;;;;2603630;54;20050;31
2022/12/29 00:55:43;;;;;;;4.50;2.00;;;7.30;99.90;;;;;;2603546;54;20978;31
2022/12/29 00:58:18;;;;;;;2.63;1.60;;;7.20;99.90;;;;;;2603605;54;20789;31
2022/12/29 01:00:55;;;;;;;2.97;1.98;;;7.20;99.90;;;;;;2603689;54;20101;31
2022/12/29 01:03:31;;;;;;;5.43;2.42;;;7.20;99.90;;;;;;2603603;54;20050;31
2022/12/29 01:06:07;;;;;;;5.28;2.65;;;7.20;99.90;;;;;;2603525;54;20034;31
2022/12/29 01:08:46;;;;;;;4.70;2.10;;;7.10;99.90;;;;;;2603496;54;20035;31
2022/12/29 01:11:20;;;;;;;3.92;2.10;;;7.10;99.90;;;;;;2603565;54;20074;31
2022/12/29 01:13:56;;;;;;;6.22;2.47;;;7.10;99.90;;;;;;2603648;54;20846;31
2022/12/29 01:16:36;;;;;;;4.97;2.60;;;7.10;99.90;;;;;;2603215;54;20976;31
2022/12/29 01:19:11;;;;;;;3.58;2.05;;;7.10;99.90;;;;;;2621880;46;20937;31
2022/12/29 01:21:46;;;;;;;2.67;1.70;;;7.10;99.90;;;;;;2603596;54;20030;31
2022/12/29 01:24:22;;;;;;;4.60;2.15;;;7.10;99.90;;;;;;2603697;54;20759;31
2022/12/29 01:27:01;;;;;;;3.33;2.20;;;7.10;99.90;;;;;;2603557;54;19934;31
2022/12/29 01:29:36;;;;;;;4.63;2.47;;;7.10;99.90;;;;;;2603199;54;20011;31
2022/12/29 01:32:12;;;;;;;4.50;1.73;;;7.10;99.90;;;;;;2603440;54;20069;31
2022/12/29 01:34:52;;;;;;;4.95;2.15;;;7.10;99.90;;;;;;2603679;54;20056;31
2022/12/29 01:37:26;;;;;;;3.30;1.70;;;7.10;99.90;;;;;;2621792;46;20904;31
2022/12/29 01:40:02;;;;;;;3.60;1.80;;;7.10;99.90;;;;;;2603582;54;20080;31
2022/12/29 01:42:41;;;;;;;4.05;1.90;;;7.10;99.90;;;;;;2622128;46;20900;31
2022/12/29 01:45:17;;;;;;;3.95;1.70;;;7.10;99.90;;;;;;2603405;54;20041;31
2022/12/29 01:47:53;;;;;;;3.43;1.57;;;7.10;99.90;;;;;;2603426;54;21093;31
2022/12/29 01:50:31;;;;;;;3.40;1.65;;;7.20;99.90;;;;;;2603085;54;20112;31
2022/12/29 01:53:10;;;;;;;5.93;1.60;;;7.10;99.90;;;;;;2621706;46;20822;31
2022/12/29 01:55:46;;;;;;;3.38;1.20;;;7.10;99.90;;;;;;2603624;54;20842;31
2022/12/29 01:58:25;;;;;;;4.25;1.60;;;7.20;99.90;;;;;;2602658;54;20886;31
2022/12/29 02:01:03;;;;;;;4.38;1.50;;;7.10;99.90;;;;;;2602556;54;20099;31
2022/12/29 02:03:36;;;;;;;3.15;1.40;;;7.10;99.90;;;;;;2620278;46;22370;31
2022/12/29 02:06:16;;;;;;;4.03;1.70;;;7.10;99.90;;;;;;2603378;54;20045;31
2022/12/29 02:08:50;;;;;;;3.42;1.75;;;7.10;99.90;;;;;;2603395;54;20046;31
2022/12/29 02:11:27;;;;;;;2.50;1.40;;;7.10;99.90;;;;;;2603455;54;20149;31
2022/12/29 02:14:07;;;;;;;3.38;1.13;;;7.20;99.90;;;;;;2603528;54;20030;31
2022/12/29 02:16:56;;;;;;;3.15;1.20;;;7.20;99.90;;;;;;2603513;54;22459;31
2022/12/29 02:20:01;;;;;;;6.10;1.30;;;7.20;99.90;;;;;;2603431;54;20056;31
2022/12/29 02:22:37;;;;;;;3.30;1.10;;;7.20;99.90;;;;;;2603426;54;20023;31
2022/12/29 02:25:24;;;;;;;;;;;7.20;99.90;;;;;;2603514;54;20038;31
2022/12/29 02:28:30;;;;;;;4.47;1.33;;;7.20;99.90;;;;;;2621774;46;19935;31
2022/12/29 02:31:10;;;;;;;3.75;1.20;;;7.20;99.90;;;;;;2621483;46;22370;31
2022/12/29 02:33:52;;;;;;;2.28;1.20;;;7.30;99.90;;;;;;2603405;54;20904;31
2022/12/29 02:36:31;;;;;;;4.43;1.50;;;7.30;99.90;;;;;;2603372;54;20023;31
2022/12/29 02:39:08;;;;;;;2.78;1.40;;;7.30;99.90;;;;;;2603202;54;20038;31
2022/12/29 02:41:45;;;;;;;2.42;1.17;;;7.30;99.90;;;;;;2603235;54;19993;31
2022/12/29 02:44:24;;;;;;;2.85;1.25;;;7.30;99.90;;;;;;2612357;46;20026;31
2022/12/29 02:47:05;;;;;;;4.50;1.17;;;7.30;99.90;;;;;;2602380;54;20851;31
2022/12/29 02:49:43;;;;;;;2.38;1.33;;;7.30;99.90;;;;;;2603138;54;20914;31
2022/12/29 02:52:21;;;;;;;3.20;1.33;;;7.30;99.90;;;;;;2603208;54;20034;31
2022/12/29 02:54:53;;;;;;;5.18;1.35;;;7.20;99.90;;;;;;2603361;54;20045;31
2022/12/29 02:57:33;;;;;;;3.30;2.53;;;7.30;99.90;;;;;;2603015;54;20916;31
2022/12/29 03:00:10;;;;;;;4.57;1.63;;;7.30;99.90;;;;;;2603291;54;20046;31
2022/12/29 03:03:02;;;;;;;4.10;1.75;;;7.30;99.90;;;;;;2603140;54;20113;31
2022/12/29 03:05:58;;;;;;;2.17;1.30;;;7.30;99.90;;;;;;2603275;54;20832;31
2022/12/29 03:08:39;;;;;;;2.55;0.98;;;7.30;99.90;;;;;;2603116;54;20085;31
2022/12/29 03:12:07;;;;;;;2.87;1.23;;;7.30;99.90;;;;;;2603025;54;20809;31
2022/12/29 03:17:04;;;;;;;3.20;1.10;;;7.40;99.90;;;;;;2621575;46;20258;31
2022/12/29 03:19:44;;;;;;;3.13;0.90;;;7.30;99.90;;;;;;2603292;54;19984;31
2022/12/29 03:22:33;;;;;;;2.17;0.93;;;7.40;99.90;;;;;;2603330;54;20022;31
2022/12/29 03:25:14;;;;;;;2.90;0.90;;;7.40;99.90;;;;;;2603139;54;20026;31
2022/12/29 03:27:51;;;;;;;4.10;1.40;;;7.50;99.90;;;;;;2603135;54;20031;31
2022/12/29 03:30:28;;;;;;;3.13;1.20;;;7.50;99.90;;;;;;2602999;54;20027;31
2022/12/29 03:33:07;;;;;;;4.85;1.50;;;7.50;99.90;;;;;;2603205;54;20157;31
2022/12/29 03:35:45;;;;;;;2.30;0.93;;;7.60;99.90;;;;;;2603253;54;20030;31
2022/12/29 03:38:21;;;;;;;5.80;1.80;;;7.60;99.90;;;;;;2772973;31;21475;31
2022/12/29 03:40:58;;;;;;;2.87;0.77;;;7.60;99.90;;;;;;2603116;54;20049;31
2022/12/29 03:43:35;;;;;;;3.15;1.20;;;7.60;99.90;;;;;;2603198;54;20919;31
2022/12/29 03:46:11;;;;;;;2.65;1.10;;;7.60;99.90;;;;;;2603006;54;20023;31
2022/12/29 03:48:49;;;;;;;2.67;1.45;;;7.60;99.90;;;;;;2621615;46;20837;31
2022/12/29 03:51:27;;;;;;;3.65;1.40;;;7.50;99.90;;;;;;2602883;54;20813;31
2022/12/29 03:54:04;;;;;;;3.10;1.65;;;7.50;99.90;;;;;;2604580;54;20868;31
2022/12/29 03:56:40;;;;;;;3.00;1.40;;;7.40;99.90;;;;;;2623262;46;20034;31
2022/12/29 03:59:15;;;;;;;5.88;1.30;;;7.40;99.90;;;;;;2721727;38;20484;31
2022/12/29 04:01:52;;;;;;;3.95;2.10;;;7.30;99.90;;;;;;2604663;54;20049;31
2022/12/29 04:04:27;;;;;;;4.03;1.75;;;7.30;99.90;;;;;;2604945;54;20879;31
2022/12/29 04:07:06;;;;;;;3.50;1.10;;;7.20;99.90;;;;;;2703447;38;20489;31
2022/12/29 04:09:43;;;;;;;2.73;1.53;;;7.20;99.90;;;;;;2604467;54;20588;31
2022/12/29 04:12:24;;;;;;;4.50;1.95;;;7.30;99.90;;;;;;2604693;54;19941;31
2022/12/29 04:14:58;;;;;;;3.97;1.73;;;7.10;99.90;;;;;;2604746;54;22329;31
2022/12/29 04:17:33;;;;;;;7.30;1.95;;;7.10;99.90;;;;;;2604835;54;20033;31
2022/12/29 04:23:14;;;;;;;3.15;1.77;;;7.10;99.90;;;;;;2604505;54;19935;31
2022/12/29 04:25:52;;;;;;;4.05;1.60;;;7.10;99.90;;;;;;2604707;54;20101;31
2022/12/29 04:28:27;;;;;;;6.70;1.70;;;7.00;99.90;;;;;;2604708;54;20046;31
2022/12/29 04:31:25;;;;;;;3.25;1.50;;;7.00;99.90;;;;;;2604495;54;20026;31
2022/12/29 04:34:01;;;;;;;2.60;1.20;;;7.00;99.90;;;;;;2604718;54;20033;31
2022/12/29 04:36:40;;;;;;;5.53;1.75;;;7.00;99.90;;;;;;2623032;46;20022;31
2022/12/29 04:39:14;;;;;;;2.92;1.48;;;7.00;99.90;;;;;;2623462;46;20923;31
2022/12/29 04:41:52;;;;;;;2.97;1.33;;;7.00;99.90;;;;;;2604719;54;20030;31
2022/12/29 04:44:29;;;;;;;2.63;1.40;;;7.00;99.90;;;;;;2604581;54;20026;31
2022/12/29 04:47:16;;;;;;;3.80;1.58;;;7.10;99.90;;;;;;2604593;54;20035;31
2022/12/29 04:50:15;;;;;;;3.55;1.75;;;7.10;99.90;;;;;;2604383;54;21007;31
2022/12/29 04:53:00;;;;;;;3.30;1.60;;;7.10;99.90;;;;;;2604398;54;20029;31
2022/12/29 04:55:35;;;;;;;5.60;1.70;;;7.10;99.90;;;;;;2604776;54;20146;31
2022/12/29 04:58:14;;;;;;;3.85;1.60;;;7.10;99.90;;;;;;2623268;46;20919;31
2022/12/29 05:00:57;;;;;;;2.60;1.45;;;7.20;99.90;;;;;;2604505;54;20927;31
2022/12/29 05:03:34;;;;;;;4.55;1.40;;;7.20;99.90;;;;;;2604390;54;20027;31
2022/12/29 05:06:11;;;;;;;3.30;1.40;;;7.30;99.90;;;;;;2602788;54;20900;31
2022/12/29 05:08:46;;;;;;;2.85;1.20;;;7.30;99.90;;;;;;2603711;54;20064;31
2022/12/29 05:11:22;;;;;;;5.20;1.10;;;7.30;99.90;;;;;;2603631;54;20029;31
2022/12/29 05:14:03;;;;;;;3.53;1.27;;;7.30;99.90;;;;;;2764311;31;20169;31
2022/12/29 05:16:41;;;;;;;4.78;1.35;;;7.30;99.90;;;;;;2603608;54;20884;31
2022/12/29 05:19:17;;;;;;;2.85;1.63;;;7.40;99.90;;;;;;2603574;54;20049;31
2022/12/29 05:21:52;;;;;;;2.42;1.30;;;7.40;99.90;;;;;;2603432;54;20072;31
2022/12/29 05:24:27;;;;;;;4.90;1.60;;;7.40;99.90;;;;;;2603438;54;20038;31
2022/12/29 05:27:04;;;;;;;2.92;1.25;;;7.50;99.90;;;;;;2603452;54;20061;31
2022/12/29 05:29:58;;;;;;;3.75;1.38;;;7.50;99.90;;;;;;2603614;54;20027;31
2022/12/29 05:32:35;;;;;;;4.10;1.57;;;7.50;99.90;;;;;;2603123;54;20026;31
2022/12/29 05:35:10;;;;;;;2.40;1.25;;;7.50;99.90;;;;;;2603615;54;20026;31
2022/12/29 05:37:45;;;;;;;2.85;1.30;;;7.50;99.90;;;;;;2602857;54;20038;31
2022/12/29 05:40:21;;;;;;;;;;;7.60;99.90;;;;;;2603694;54;20022;31
2022/12/29 05:42:56;;;;;;;2.75;1.20;;;7.60;99.90;;;;;;2603808;54;19935;31
2022/12/29 05:45:51;;;;;;;3.42;1.95;;;7.60;99.90;;;;;;2603443;54;20054;31
2022/12/29 05:48:49;;;;;;;3.35;1.60;;;7.60;99.90;;;;;;2603268;54;20888;31
2022/12/29 05:51:32;;;;;;;3.97;1.65;;;7.60;99.90;;;;;;2603342;54;20085;31
2022/12/29 05:54:07;;;;;;;5.45;1.75;;;7.50;99.90;;;;;;2603380;54;20031;31
2022/12/29 05:56:45;;;;;;;6.72;1.75;;;7.50;99.90;;;;;;2603464;54;20036;31
2022/12/29 05:59:21;;;;;;;5.03;1.88;;;7.50;99.90;;;;;;2622028;46;20900;31
2022/12/29 06:01:59;;;;;;;4.27;1.70;;;7.50;99.90;;;;;;2603202;54;20093;31
2022/12/29 06:04:32;;;;;;;4.38;1.85;;;7.50;99.90;;;;;;2603362;54;19941;31
2022/12/29 06:07:08;;;;;;;3.60;1.85;;;7.50;99.90;;;;;;2603574;54;20691;31
2022/12/29 06:09:49;;;;;;;4.05;1.63;;;7.50;99.90;;;;;;2603271;54;20050;31
2022/12/29 06:12:24;;;;;;;4.45;1.88;;;7.50;99.90;;;;;;2603232;54;19966;31
2022/12/29 06:15:01;;;;;;;4.75;1.90;;;7.50;99.90;;;;;;2621933;46;20711;31
2022/12/29 06:17:39;;;;;;;3.00;1.50;;;7.50;99.90;;;;;;2603280;54;20030;31
2022/12/29 06:20:16;;;;;;;2.97;1.52;;;7.60;99.90;;;;;;2603319;54;20270;31
2022/12/29 06:22:51;;;;;;;4.68;1.58;;;7.60;99.90;;;;;;2603425;54;20038;31
2022/12/29 06:25:32;;;;;;;4.13;1.48;;;7.60;99.90;;;;;;2603453;54;20553;31
2022/12/29 06:28:05;;;;;;;3.30;1.60;;;7.60;99.90;;;;;;2603523;54;20030;31
2022/12/29 06:30:42;;;;;;;6.25;1.80;;;7.60;99.90;;;;;;2603210;54;20093;31
2022/12/29 06:33:20;;;;;;;3.65;1.88;;;7.70;99.90;;;;;;2603345;54;20125;31
2022/12/29 06:35:55;;;;;;;3.50;2.05;;;7.70;99.90;;;;;;2603195;54;20057;31
2022/12/29 06:38:31;;;;;;;4.07;1.65;;;7.80;99.90;;;;;;2603313;54;20061;31
2022/12/29 06:41:08;;;;;;;3.60;1.73;;;7.70;99.90;;;;;;2621760;46;19935;31
2022/12/29 06:44:02;;;;;;;3.50;1.83;;;7.70;99.90;;;;;;2603323;54;20905;31
2022/12/29 06:46:57;;;;;;;6.63;1.83;;;7.80;99.90;;;;;;2603183;54;20029;31
2022/12/29 06:49:35;;;;;;;;;;;7.80;99.90;;;;;;2603641;54;20602;31
2022/12/29 06:52:10;;;;;;;4.07;1.52;;;7.80;99.90;;;;;;2621846;46;20004;31
2022/12/29 06:54:47;;;;;;;3.83;1.83;;;7.80;99.90;;;;;;2603476;54;20030;31
2022/12/29 06:57:26;;;;;;;4.47;1.90;;;7.80;99.90;;;;;;2602638;54;20093;31
2022/12/29 07:00:00;;;;;;;4.88;1.80;;;7.80;99.90;;;;;;2603230;54;20264;31
2022/12/29 07:02:36;;;;;;;3.22;1.75;;;7.90;99.90;;;;;;2603373;54;20022;31
2022/12/29 07:05:15;;;;;;;3.25;1.77;;;7.90;99.90;;;;;;2603172;54;20908;31
2022/12/29 07:07:49;;;;;;;6.43;2.42;;;7.90;99.90;;;;;;2603231;54;20066;31
2022/12/29 07:10:24;;;;;;;5.30;1.80;;;8.00;99.90;;;;;;2603268;54;20038;31
2022/12/29 07:12:59;;;;;;;4.03;1.77;;;8.00;99.90;;;;;;2602966;54;20030;31
2022/12/29 07:15:35;;;;;;;3.67;1.70;;;8.00;99.90;;;;;;2603323;54;20049;31
2022/12/29 07:18:12;;;;;;;3.03;1.52;;;8.10;99.90;;;;;;2603077;54;20049;31
2022/12/29 07:20:46;;;;;;;5.13;1.90;;;8.10;99.90;;;;;;2603015;54;19961;31
2022/12/29 07:23:25;;;;;;;9.40;1.80;;;8.20;99.90;;;;;;2602590;54;19934;31
2022/12/29 07:26:03;;;;;;;4.30;1.80;;;8.20;99.90;;;;;;2603128;54;20094;31
2022/12/29 07:28:43;;;;;;;2.10;1.35;;;8.20;99.90;;;;;;2602952;54;20022;31
2022/12/29 07:31:18;;;;;;;3.75;1.70;;;8.30;99.90;;;;;;2621361;46;22472;31
2022/12/29 07:33:53;;;;;;;4.05;1.85;;;8.30;99.90;;;;;;2603055;54;20026;31
2022/12/29 07:36:28;;;;;;;4.05;1.60;;;8.40;99.90;;;;;;2603071;54;25072;31
2022/12/29 07:39:11;;;;;;;4.45;1.85;;;8.50;99.90;;;;;;2603180;54;20810;31
2022/12/29 07:41:50;;;;;;;4.20;1.40;;;8.70;99.90;;;;;;2603004;54;20038;31
2022/12/29 07:44:28;;;;;;;3.30;1.40;;;8.70;99.90;;;;;;2603278;54;20373;31
2022/12/29 07:47:27;;;;;;;21.70;3.25;;;8.80;99.90;;;;;;2602938;54;21488;31
2022/12/29 07:50:03;;;;;;;7.07;1.95;;;9.00;99.90;;;;;;2603645;54;20108;31
2022/12/29 07:52:37;;;;;;;3.43;1.77;;;9.20;99.90;;;;;;2603136;54;20029;31
2022/12/29 07:55:15;;;;;;;3.25;1.65;;;9.30;99.90;;;;;;2603114;54;20077;31
2022/12/29 07:57:51;;;;;;;3.53;1.60;;;9.30;99.90;;;;;;2603017;54;20826;31
2022/12/29 08:00:25;;;;;;;2.60;1.60;;;9.30;99.90;;;;;;2772794;31;20629;31
2022/12/29 08:03:01;;;;;;;4.20;2.00;;;9.20;99.90;;;;;;2603091;54;19941;31
2022/12/29 08:05:39;;;;;;;3.50;1.80;;;9.20;99.90;;;;;;2603166;54;20840;31
2022/12/29 08:08:16;;;;;;;4.65;1.85;;;9.20;99.90;;;;;;2603176;54;20087;31
2022/12/29 08:10:55;;;;;;;4.18;1.73;;;9.20;99.90;;;;;;2603112;54;20950;31
2022/12/29 08:13:30;;;;;;;2.90;1.95;;;9.20;99.90;;;;;;2602872;54;20912;31
2022/12/29 08:16:04;;;;;;;5.43;2.13;;;9.20;99.90;;;;;;2602846;54;20941;31
2022/12/29 08:18:44;;;;;;;4.33;1.60;;;9.20;99.90;;;;;;2602976;54;20027;31
2022/12/29 08:21:21;;;;;;;2.83;1.58;;;9.20;99.90;;;;;;2602881;54;20741;31
2022/12/29 08:23:57;;;;;;;5.13;2.75;;;9.20;99.90;;;;;;2602742;54;20089;31
2022/12/29 08:26:35;;;;;;;4.30;2.10;;;9.30;99.90;;;;;;2602991;54;20729;31
2022/12/29 08:29:10;;;;;;;3.58;1.48;;;9.30;99.90;;;;;;2603011;54;20061;31
2022/12/29 08:31:45;;;;;;;5.00;1.60;;;9.30;99.90;;;;;;2602815;54;20031;31
2022/12/29 08:34:20;;;;;;;4.35;1.80;;;9.30;99.90;;;;;;2602707;54;20853;31
2022/12/29 08:36:54;;;;;;;4.53;1.80;;;9.40;99.90;;;;;;2602904;54;20030;31
2022/12/29 08:39:30;;;;;;;3.40;1.52;;;9.40;99.90;;;;;;2603473;54;20026;31
2022/12/29 08:42:08;;;;;;;;;;;9.50;99.90;;;;;;2603950;54;20031;31
2022/12/29 08:44:44;;;;;;;4.55;1.75;;;9.50;99.90;;;;;;2603854;54;20572;31
2022/12/29 08:47:20;;;;;;;6.90;2.40;;;9.60;99.90;;;;;;2602825;54;20030;31
2022/12/29 08:49:56;;;;;;;12.65;2.67;;;9.60;99.90;;;;;;2603834;54;20030;31
2022/12/29 08:52:30;;;;;;;;;;;9.70;99.90;;;;;;2603714;54;20804;31
2022/12/29 08:55:05;;;;;;;15.57;2.90;;;9.70;99.90;;;;;;2603593;54;19941;31
2022/12/29 08:57:42;;;;;;;5.53;2.40;;;9.70;99.90;;;;;;2603648;54;20101;31
2022/12/29 09:00:25;;;;;;;7.35;3.10;;;9.60;99.90;;;;;;2622270;46;20023;31
2022/12/29 09:03:01;;;;;;;5.22;3.03;;;9.60;99.90;;;;;;2603509;54;20920;31
2022/12/29 09:05:35;;;;;;;9.90;3.35;;;9.50;99.90;;;;;;2603418;54;20030;31
2022/12/29 09:08:09;;;;;;;9.70;4.03;;;9.50;99.90;;;;;;2603663;54;20027;31
2022/12/29 09:10:46;;;;;;;7.03;3.73;;;9.50;99.90;;;;;;2603563;54;20664;31
2022/12/29 09:13:23;;;;;;;8.43;3.40;;;9.40;99.90;;;;;;2603600;54;20777;31
2022/12/29 09:16:01;;;;;;;6.40;3.20;;;9.40;99.90;;;;;;2603626;54;21006;31
2022/12/29 09:18:35;;;;;;;7.72;3.95;;;9.40;99.90;;;;;;2603482;54;20632;31
2022/12/29 09:21:13;;;;;;;6.73;3.37;;;9.40;99.90;;;;;;2603509;54;20960;31
2022/12/29 09:23:49;;;;;;;7.85;3.50;;;9.40;99.90;;;;;;2603513;54;20569;31
2022/12/29 09:26:25;;;;;;;6.40;3.22;;;9.40;99.90;;;;;;2603626;54;20165;31
2022/12/29 09:29:03;;;;;;;7.20;3.63;;;9.40;99.90;;;;;;2621792;46;20030;31
2022/12/29 09:31:37;;;;;;;11.68;3.67;;;9.40;99.90;;;;;;2612520;46;20879;31
2022/12/29 09:34:12;;;;;;;7.32;2.97;;;9.50;99.90;;;;;;2602527;54;20785;31
2022/12/29 09:36:48;;;;;;;10.27;3.15;;;9.50;99.90;;;;;;2603426;54;20901;31
2022/12/29 09:39:28;;;;;;;5.00;2.75;;;9.60;99.90;;;;;;2603599;54;20859;31
2022/12/29 09:42:04;;;;;;;4.45;2.95;;;9.60;99.90;;;;;;2603350;54;20030;31
2022/12/29 09:44:51;;;;;;;7.00;2.47;;;9.70;99.90;;;;;;2701856;39;20477;31
2022/12/29 09:47:25;;;;;;;;;;;9.80;99.90;;;;;;2603611;54;20548;31
2022/12/29 09:50:02;;;;;;;8.13;2.50;;;9.80;99.90;;;;;;2603430;54;19935;31
2022/12/29 09:52:39;;;;;;;5.00;2.92;;;9.80;99.90;;;;;;2603490;54;20927;31
2022/12/29 09:55:17;;;;;;;4.90;2.33;;;9.80;99.90;;;;;;2603173;54;20908;31
2022/12/29 09:57:55;;;;;;;5.82;2.70;;;9.90;99.90;;;;;;2603530;54;20088;31
2022/12/29 10:00:39;;;;;;;9.95;2.60;;;9.90;99.90;;;;;;2603350;54;20938;31
2022/12/29 10:03:18;;;;;;;6.07;2.67;;;9.90;99.90;;;;;;2603359;54;20033;31
2022/12/29 10:05:55;;;;;;;5.40;2.45;;;10.00;99.90;;;;;;2603311;54;20034;31
2022/12/29 10:08:36;;;;;;;4.88;2.30;;;10.00;99.90;;;;;;2603348;54;20031;31
2022/12/29 10:11:16;;;;;;;3.42;2.20;;;10.00;99.90;;;;;;2603649;54;20565;31
2022/12/29 10:13:58;;;;;;;5.75;2.70;;;10.10;99.90;;;;;;2602551;54;22363;31
2022/12/29 10:16:49;;;;;;;4.80;2.55;;;10.10;99.90;;;;;;2603535;54;20103;31
2022/12/29 10:19:37;;;;;;;5.25;2.15;;;10.10;99.90;;;;;;2603535;54;20038;31
2022/12/29 10:22:17;;;;;;;4.33;1.77;;;10.20;99.90;;;;;;2603146;54;20175;31
2022/12/29 10:24:53;;;;;;;6.10;1.85;;;10.20;99.90;;;;;;2603504;54;20849;31
2022/12/29 10:27:29;;;;;;;4.90;2.00;;;10.30;99.90;;;;;;2603274;54;20840;31
2022/12/29 10:30:06;;;;;;;4.00;2.03;;;10.30;99.90;;;;;;2603197;54;20838;31
2022/12/29 10:32:43;;;;;;;;;;;10.40;99.90;;;;;;2603574;54;20049;31
2022/12/29 10:35:19;;;;;;;6.47;2.17;;;10.40;99.90;;;;;;2602782;54;20836;31
2022/12/29 10:37:55;;;;;;;;;;;10.40;99.90;;;;;;2603516;54;20887;31
2022/12/29 10:40:32;;;;;;;4.50;2.20;;;10.40;99.90;;;;;;2702007;39;20359;31
2022/12/29 10:43:15;;;;;;;6.93;2.35;;;10.50;99.90;;;;;;2603520;54;20549;31
2022/12/29 10:45:56;;;;;;;5.75;2.35;;;10.50;99.90;;;;;;2701988;39;20571;31
2022/12/29 10:48:36;;;;;;;3.20;2.00;;;10.50;99.90;;;;;;2603419;54;20031;31
2022/12/29 10:51:11;;;;;;;2.75;1.60;;;10.50;99.90;;;;;;2701889;39;20537;31
2022/12/29 10:53:48;;;;;;;3.60;2.00;;;10.60;99.90;;;;;;2603226;54;20900;31
2022/12/29 10:56:30;;;;;;;4.10;1.87;;;10.60;99.90;;;;;;2603294;54;20045;31
2022/12/29 10:59:10;;;;;;;4.57;2.10;;;10.60;99.90;;;;;;2603174;54;20069;31
2022/12/29 11:01:48;;;;;;;4.75;2.25;;;10.60;99.90;;;;;;2603177;54;20027;31
2022/12/29 11:04:38;;;;;;;5.75;2.78;;;10.70;99.90;;;;;;2603441;54;19950;31
2022/12/29 11:07:14;;;;;;;4.75;1.88;;;10.70;99.90;;;;;;2603153;54;20947;31
2022/12/29 11:09:50;;;;;;;4.65;2.05;;;10.80;99.90;;;;;;2602901;54;20026;31
2022/12/29 11:12:27;;;;;;;4.47;2.10;;;10.80;99.90;;;;;;2603173;54;20056;31
2022/12/29 11:15:14;;;;;;;4.93;2.17;;;10.80;99.90;;;;;;2603253;54;20909;31
2022/12/29 11:17:50;;;;;;;3.67;1.92;;;10.90;99.90;;;;;;2603552;54;20042;31
2022/12/29 11:20:37;;;;;;;3.97;2.20;;;10.90;99.90;;;;;;2616401;46;20034;31
2022/12/29 11:23:25;;;;;;;2.47;1.80;;;10.90;99.90;;;;;;2603138;54;20042;31
2022/12/29 11:26:16;;;;;;;6.60;1.85;;;10.90;99.90;;;;;;2701740;39;20521;31
2022/12/29 11:29:07;;;;;;;4.03;2.22;;;10.90;99.90;;;;;;2603107;54;20038;31
2022/12/29 11:31:41;;;;;;;6.38;2.38;;;10.90;99.90;;;;;;2603130;54;21460;31
2022/12/29 11:34:23;;;;;;;5.70;2.70;;;11.00;99.90;;;;;;2602889;54;20092;31
2022/12/29 11:37:03;;;;;;;5.70;2.00;;;11.00;99.90;;;;;;2603088;54;20085;31
2022/12/29 11:39:41;;;;;;;3.63;2.13;;;11.00;99.90;;;;;;2603072;54;20023;31
2022/12/29 11:42:17;;;;;;;5.88;1.88;;;11.00;99.90;;;;;;2603211;54;20741;31
2022/12/29 11:44:53;;;;;;;5.40;2.20;;;11.00;99.90;;;;;;2603104;54;20030;31
2022/12/29 11:47:31;;;;;;;4.27;2.30;;;11.10;99.90;;;;;;2602838;54;20122;31
2022/12/29 11:50:09;;;;;;;5.90;2.47;;;11.10;99.90;;;;;;2621275;46;21187;31
2022/12/29 11:52:42;;;;;;;4.95;2.13;;;11.10;99.90;;;;;;2603085;54;20034;31
2022/12/29 11:55:24;;;;;;;6.00;2.63;;;11.10;99.90;;;;;;2603137;54;20030;31
2022/12/29 11:58:01;;;;;;;4.45;2.13;;;11.10;99.90;;;;;;2602975;54;20081;31
2022/12/29 12:00:39;;;;;;;5.15;1.80;;;11.10;99.90;;;;;;2603219;54;20065;31
2022/12/29 12:03:16;;;;;;;8.13;2.33;;;11.10;99.90;;;;;;2701665;39;20579;31
2022/12/29 12:05:53;;;;;;;4.60;3.00;;;11.10;99.90;;;;;;2603066;54;20053;31
2022/12/29 12:08:34;;;;;;;5.95;2.30;;;11.10;99.90;;;;;;2603126;54;20030;31
2022/12/29 12:11:07;;;;;;;4.88;2.03;;;11.10;99.90;;;;;;2603228;54;20060;31
2022/12/29 12:13:49;;;;;;;5.75;2.65;;;11.10;99.90;;;;;;2603272;54;20632;31
2022/12/29 12:16:25;;;;;;;4.50;1.90;;;11.10;99.90;;;;;;2603592;54;20628;31
2022/12/29 12:19:04;;;;;;;5.75;2.22;;;11.10;99.90;;;;;;2603567;54;20982;31
2022/12/29 12:21:41;;;;;;;4.63;2.00;;;11.00;99.90;;;;;;2603095;54;20888;31
2022/12/29 12:24:29;;;;;;;7.63;2.42;;;11.00;99.90;;;;;;2603747;54;20917;31
2022/12/29 12:27:05;;;;;;;3.60;1.73;;;11.00;99.90;;;;;;2603975;54;20889;31
2022/12/29 12:29:42;;;;;;;;;;;11.00;99.90;;;;;;2604162;54;20038;31
2022/12/29 12:32:19;;;;;;;4.03;2.00;;;11.00;99.90;;;;;;2603281;54;20040;31
2022/12/29 12:34:56;;;;;;;3.13;1.90;;;10.90;99.90;;;;;;2603713;54;20885;31
2022/12/29 12:37:51;;;;;;;4.45;2.35;;;10.90;99.90;;;;;;2622070;46;20072;31
2022/12/29 12:40:43;;;;;;;4.73;2.20;;;10.90;99.90;;;;;;2603687;54;20685;31
2022/12/29 12:45:58;;;;;;;6.38;2.35;;;10.80;99.90;;;;;;2604023;54;20089;31
2022/12/29 12:48:47;;;;;;;6.10;2.88;;;10.80;99.90;;;;;;2702250;39;21415;31
2022/12/29 12:51:28;;;;;;;3.83;2.28;;;10.80;99.90;;;;;;2603714;54;20900;31
2022/12/29 12:54:09;;;;;;;5.70;3.07;;;10.80;99.90;;;;;;2603547;54;20034;31
2022/12/29 12:57:05;;;;;;;5.60;2.50;;;10.80;99.90;;;;;;2603754;54;21122;31
2022/12/29 12:59:45;;;;;;;5.07;2.40;;;10.80;99.90;;;;;;2603654;54;20030;31
2022/12/29 13:02:29;;;;;;;4.40;1.83;;;10.80;99.90;;;;;;2603756;54;19934;31
2022/12/29 13:05:04;;;;;;;4.57;2.20;;;10.80;99.90;;;;;;2603812;54;20081;31
2022/12/29 13:07:46;;;;;;;3.90;2.38;;;10.80;99.90;;;;;;2603766;54;19962;31
2022/12/29 13:10:29;;;;;;;5.38;2.50;;;10.80;99.90;;;;;;2603779;54;20877;31
2022/12/29 13:13:21;;;;;;;4.50;2.45;;;10.80;99.90;;;;;;2603545;54;20026;31
2022/12/29 13:15:57;;;;;;;4.38;2.20;;;10.80;99.90;;;;;;2701663;39;20488;31
2022/12/29 13:18:38;;;;;;;4.10;2.30;;;10.70;99.90;;;;;;2702206;39;20564;31
2022/12/29 13:21:27;;;;;;;6.53;2.63;;;10.70;99.90;;;;;;2603761;54;20048;31
2022/12/29 13:24:05;;;;;;;6.10;2.50;;;10.70;99.90;;;;;;2702029;39;20548;31
2022/12/29 13:26:42;;;;;;;5.43;2.75;;;10.70;99.90;;;;;;2603174;54;20929;31
2022/12/29 13:29:20;;;;;;;5.05;2.67;;;10.70;99.90;;;;;;2603704;54;20038;31
2022/12/29 13:31:57;;;;;;;5.57;2.92;;;10.70;99.90;;;;;;2603782;54;20105;31
2022/12/29 13:34:41;;;;;;;4.97;2.60;;;10.60;99.90;;;;;;2603758;54;20825;31
2022/12/29 13:37:17;;;;;;;6.05;2.85;;;10.60;99.90;;;;;;2701753;39;21409;31
2022/12/29 13:39:54;;;;;;;8.90;2.55;;;10.70;99.90;;;;;;2702063;39;20484;31
2022/12/29 13:42:28;;;;;;;4.32;2.42;;;10.70;99.90;;;;;;2603455;54;20941;31
2022/12/29 13:45:03;;;;;;;8.77;2.65;;;10.70;99.90;;;;;;2603398;54;22460;31
2022/12/29 13:47:39;;;;;;;5.32;3.22;;;10.70;99.90;;;;;;2603588;54;20554;31
2022/12/29 13:50:19;;;;;;;5.00;2.70;;;10.70;99.90;;;;;;2603565;54;20033;31
2022/12/29 13:52:58;;;;;;;6.13;2.15;;;10.70;99.90;;;;;;2702209;39;20694;31
2022/12/29 13:55:36;;;;;;;3.75;2.80;;;10.70;99.90;;;;;;2603427;54;20038;31
2022/12/29 13:58:15;;;;;;;4.80;2.70;;;10.70;99.90;;;;;;2603421;54;20175;31
2022/12/29 14:00:53;;;;;;;6.43;2.85;;;10.70;99.90;;;;;;2603574;54;20565;31
2022/12/29 14:03:43;;;;;;;4.43;2.47;;;10.70;99.90;;;;;;2603352;54;20801;31
2022/12/29 14:06:25;;;;;;;6.65;2.60;;;10.70;99.90;;;;;;2603258;54;20687;31
2022/12/29 14:09:02;;;;;;;7.45;2.83;;;10.70;99.90;;;;;;2603691;54;20049;31
2022/12/29 14:11:37;;;;;;;7.27;2.73;;;10.70;99.90;;;;;;2603500;54;20696;31
2022/12/29 14:14:17;;;;;;;6.10;2.40;;;10.70;99.90;;;;;;2621809;46;20636;31
2022/12/29 14:16:53;;;;;;;5.65;2.80;;;10.70;99.90;;;;;;2603431;54;20057;31
2022/12/29 14:19:30;;;;;;;5.93;2.92;;;10.60;99.90;;;;;;2701836;39;20428;31
2022/12/29 14:22:07;;;;;;;6.60;2.78;;;10.60;99.90;;;;;;2603319;54;20652;31
2022/12/29 14:24:45;;;;;;;5.10;2.80;;;10.60;99.90;;;;;;2603256;54;20102;31
2022/12/29 14:27:54;;;;;;;5.28;2.75;;;10.60;99.90;;;;;;2719896;39;20573;31
2022/12/29 14:30:49;;;;;;;5.60;2.83;;;10.60;99.90;;;;;;2603646;54;19991;31
2022/12/29 14:33:26;;;;;;;6.75;3.15;;;10.60;99.90;;;;;;2603292;54;20896;31
2022/12/29 14:36:21;;;;;;;5.47;3.15;;;10.60;99.90;;;;;;2603140;54;20030;31
2022/12/29 14:39:00;;;;;;;5.80;3.00;;;10.70;99.90;;;;;;2603496;54;20819;31
2022/12/29 14:41:36;;;;;;;7.38;3.80;;;10.60;99.90;;;;;;2603434;54;20033;31
2022/12/29 14:44:19;;;;;;;;;;;10.60;99.90;;;;;;2603671;54;20947;31